sensor_id;sensor_type;location;lat;lon;timestamp;temperature;humidity
18229;DHT22;9239;50.932;3.142;2023-03-31T00:00:37;11.50;99.90
18229;DHT22;9239;50.932;3.142;2023-03-31T00:03:06;11.50;99.90
18229;DHT22;9239;50.932;3.142;2023-03-31T00:05:35;11.40;99.90
18229;DHT22;9239;50.932;3.142;2023-03-31T00:08:02;11.30;99.90
18229;DHT22;9239;50.932;3.142;2023-03-31T00:10:32;11.30;99.90
18229;DHT22;9239;50.932;3.142;2023-03-31T00:12:59;11.30;99.90
18229;DHT22;9239;50.932;3.142;2023-03-31T00:15:27;11.20;99.90
18229;DHT22;9239;50.932;3.142;2023-03-31T00:17:54;11.20;99.90
18229;DHT22;9239;50.932;3.142;2023-03-31T00:20:25;11.10;99.90
18229;DHT22;9239;50.932;3.142;2023-03-31T00:22:51;11.00;99.90
18229;DHT22;9239;50.932;3.142;2023-03-31T00:25:19;11.00;99.90
18229;DHT22;9239;50.932;3.142;2023-03-31T00:27:47;11.00;99.90
18229;DHT22;9239;50.932;3.142;2023-03-31T00:30:17;11.00;99.90
18229;DHT22;9239;50.932;3.142;2023-03-31T00:32:45;11.00;99.90
18229;DHT22;9239;50.932;3.142;2023-03-31T00:35:12;11.00;99.90
18229;DHT22;9239;50.932;3.142;2023-03-31T00:37:38;11.00;99.90
18229;DHT22;9239;50.932;3.142;2023-03-31T00:40:08;11.00;99.90
18229;DHT22;9239;50.932;3.142;2023-03-31T00:42:39;11.00;99.90
18229;DHT22;9239;50.932;3.142;2023-03-31T00:45:26;11.00;99.90
18229;DHT22;9239;50.932;3.142;2023-03-31T00:47:56;11.00;99.90
18229;DHT22;9239;50.932;3.142;2023-03-31T00:50:31;11.00;99.90
18229;DHT22;9239;50.932;3.142;2023-03-31T00:53:01;11.00;99.90
18229;DHT22;9239;50.932;3.142;2023-03-31T00:55:33;11.00;99.90
18229;DHT22;9239;50.932;3.142;2023-03-31T00:58:01;11.00;99.90
18229;DHT22;9239;50.932;3.142;2023-03-31T01:00:30;11.00;99.90
18229;DHT22;9239;50.932;3.142;2023-03-31T01:02:59;11.00;99.90
18229;DHT22;9239;50.932;3.142;2023-03-31T01:05:31;10.90;99.90
18229;DHT22;9239;50.932;3.142;2023-03-31T01:07:59;10.90;99.90
18229;DHT22;9239;50.932;3.142;2023-03-31T01:10:27;10.90;99.90
18229;DHT22;9239;50.932;3.142;2023-03-31T01:12:54;10.90;99.90
18229;DHT22;9239;50.932;3.142;2023-03-31T01:15:23;10.90;99.90
18229;DHT22;9239;50.932;3.142;2023-03-31T01:17:51;10.90;99.90
18229;DHT22;9239;50.932;3.142;2023-03-31T01:20:26;10.90;99.90
18229;DHT22;9239;50.932;3.142;2023-03-31T01:23:23;10.90;99.90
18229;DHT22;9239;50.932;3.142;2023-03-31T01:29:02;10.90;99.90
18229;DHT22;9239;50.932;3.142;2023-03-31T01:31:59;10.90;99.90
18229;DHT22;9239;50.932;3.142;2023-03-31T01:34:59;10.90;99.90
18229;DHT22;9239;50.932;3.142;2023-03-31T01:40:54;10.90;99.90
18229;DHT22;9239;50.932;3.142;2023-03-31T01:43:27;10.90;99.90
18229;DHT22;9239;50.932;3.142;2023-03-31T01:45:59;11.00;99.90
18229;DHT22;9239;50.932;3.142;2023-03-31T01:48:34;11.00;99.90
18229;DHT22;9239;50.932;3.142;2023-03-31T01:51:11;11.00;99.90
18229;DHT22;9239;50.932;3.142;2023-03-31T01:53:47;11.10;99.90
18229;DHT22;9239;50.932;3.142;2023-03-31T01:56:20;11.10;99.90
18229;DHT22;9239;50.932;3.142;2023-03-31T01:58:51;11.10;99.90
18229;DHT22;9239;50.932;3.142;2023-03-31T02:01:21;11.10;99.90
18229;DHT22;9239;50.932;3.142;2023-03-31T02:03:54;11.10;99.90
18229;DHT22;9239;50.932;3.142;2023-03-31T02:06:24;11.10;99.90
18229;DHT22;9239;50.932;3.142;2023-03-31T02:08:56;11.10;99.90
18229;DHT22;9239;50.932;3.142;2023-03-31T02:11:27;11.10;99.90
18229;DHT22;9239;50.932;3.142;2023-03-31T02:13:57;11.20;99.90
18229;DHT22;9239;50.932;3.142;2023-03-31T02:16:28;11.10;99.90
18229;DHT22;9239;50.932;3.142;2023-03-31T02:18:58;11.20;99.90
18229;DHT22;9239;50.932;3.142;2023-03-31T02:21:31;11.20;99.90
18229;DHT22;9239;50.932;3.142;2023-03-31T02:23:59;11.20;99.90
18229;DHT22;9239;50.932;3.142;2023-03-31T02:26:30;11.10;99.90
18229;DHT22;9239;50.932;3.142;2023-03-31T02:29:01;11.10;99.90
18229;DHT22;9239;50.932;3.142;2023-03-31T02:31:37;11.10;99.90
18229;DHT22;9239;50.932;3.142;2023-03-31T02:34:07;11.00;99.90
18229;DHT22;9239;50.932;3.142;2023-03-31T02:36:34;11.00;99.90
18229;DHT22;9239;50.932;3.142;2023-03-31T02:39:04;11.00;99.90
18229;DHT22;9239;50.932;3.142;2023-03-31T02:41:33;11.00;99.90
18229;DHT22;9239;50.932;3.142;2023-03-31T02:44:01;11.00;99.90
18229;DHT22;9239;50.932;3.142;2023-03-31T02:46:28;10.90;99.90
18229;DHT22;9239;50.932;3.142;2023-03-31T02:48:57;10.90;99.90
18229;DHT22;9239;50.932;3.142;2023-03-31T02:51:50;10.90;99.90
18229;DHT22;9239;50.932;3.142;2023-03-31T02:57:45;10.90;99.90
18229;DHT22;9239;50.932;3.142;2023-03-31T03:00:22;10.80;99.90
18229;DHT22;9239;50.932;3.142;2023-03-31T03:03:00;10.80;99.90
18229;DHT22;9239;50.932;3.142;2023-03-31T03:05:39;10.80;99.90
18229;DHT22;9239;50.932;3.142;2023-03-31T03:08:17;10.80;99.90
18229;DHT22;9239;50.932;3.142;2023-03-31T03:10:58;10.80;99.90
18229;DHT22;9239;50.932;3.142;2023-03-31T03:13:34;10.80;99.90
18229;DHT22;9239;50.932;3.142;2023-03-31T03:16:05;10.70;99.90
18229;DHT22;9239;50.932;3.142;2023-03-31T03:18:38;10.70;99.90
18229;DHT22;9239;50.932;3.142;2023-03-31T03:21:05;10.70;99.90
18229;DHT22;9239;50.932;3.142;2023-03-31T03:23:32;10.60;99.90
18229;DHT22;9239;50.932;3.142;2023-03-31T03:25:59;10.60;99.90
18229;DHT22;9239;50.932;3.142;2023-03-31T03:28:25;10.60;99.90
18229;DHT22;9239;50.932;3.142;2023-03-31T03:30:54;10.50;99.90
18229;DHT22;9239;50.932;3.142;2023-03-31T03:33:21;10.50;99.90
18229;DHT22;9239;50.932;3.142;2023-03-31T03:35:49;10.40;99.90
18229;DHT22;9239;50.932;3.142;2023-03-31T03:38:16;10.40;99.90
18229;DHT22;9239;50.932;3.142;2023-03-31T03:40:43;10.30;99.90
18229;DHT22;9239;50.932;3.142;2023-03-31T03:43:10;10.30;99.90
18229;DHT22;9239;50.932;3.142;2023-03-31T03:45:37;10.30;99.90
18229;DHT22;9239;50.932;3.142;2023-03-31T03:48:05;10.20;99.90
18229;DHT22;9239;50.932;3.142;2023-03-31T03:50:35;10.20;99.90
18229;DHT22;9239;50.932;3.142;2023-03-31T03:53:02;10.10;99.90
18229;DHT22;9239;50.932;3.142;2023-03-31T03:55:29;10.10;99.90
18229;DHT22;9239;50.932;3.142;2023-03-31T03:57:56;10.10;99.90
18229;DHT22;9239;50.932;3.142;2023-03-31T04:00:23;10.10;99.90
18229;DHT22;9239;50.932;3.142;2023-03-31T04:02:50;10.00;99.90
18229;DHT22;9239;50.932;3.142;2023-03-31T04:05:18;9.90;99.90
18229;DHT22;9239;50.932;3.142;2023-03-31T04:07:45;10.00;99.90
18229;DHT22;9239;50.932;3.142;2023-03-31T04:10:12;9.90;99.90
18229;DHT22;9239;50.932;3.142;2023-03-31T04:12:39;9.90;99.90
18229;DHT22;9239;50.932;3.142;2023-03-31T04:15:07;9.80;99.90
18229;DHT22;9239;50.932;3.142;2023-03-31T04:17:34;9.80;99.90
18229;DHT22;9239;50.932;3.142;2023-03-31T04:20:04;9.90;99.90
18229;DHT22;9239;50.932;3.142;2023-03-31T04:22:35;9.90;99.90
18229;DHT22;9239;50.932;3.142;2023-03-31T04:25:06;9.80;99.90
18229;DHT22;9239;50.932;3.142;2023-03-31T04:27:39;9.80;99.90
18229;DHT22;9239;50.932;3.142;2023-03-31T04:30:12;9.90;99.90
18229;DHT22;9239;50.932;3.142;2023-03-31T04:32:47;9.90;99.90
18229;DHT22;9239;50.932;3.142;2023-03-31T04:35:15;9.90;99.90
18229;DHT22;9239;50.932;3.142;2023-03-31T04:37:43;9.90;99.90
18229;DHT22;9239;50.932;3.142;2023-03-31T04:40:10;9.90;99.90
18229;DHT22;9239;50.932;3.142;2023-03-31T04:42:37;9.90;99.90
18229;DHT22;9239;50.932;3.142;2023-03-31T04:45:05;9.90;99.90
18229;DHT22;9239;50.932;3.142;2023-03-31T04:47:32;9.90;99.90
18229;DHT22;9239;50.932;3.142;2023-03-31T04:49:59;9.90;99.90
18229;DHT22;9239;50.932;3.142;2023-03-31T04:52:26;9.90;99.90
18229;DHT22;9239;50.932;3.142;2023-03-31T04:54:54;9.90;99.90
18229;DHT22;9239;50.932;3.142;2023-03-31T04:57:21;9.90;99.90
18229;DHT22;9239;50.932;3.142;2023-03-31T04:59:48;10.00;99.90
18229;DHT22;9239;50.932;3.142;2023-03-31T05:02:14;10.00;99.90
18229;DHT22;9239;50.932;3.142;2023-03-31T05:04:48;10.10;99.90
18229;DHT22;9239;50.932;3.142;2023-03-31T05:07:15;10.00;99.90
18229;DHT22;9239;50.932;3.142;2023-03-31T05:09:42;10.20;99.90
18229;DHT22;9239;50.932;3.142;2023-03-31T05:12:10;10.20;99.90
18229;DHT22;9239;50.932;3.142;2023-03-31T05:14:37;10.20;99.90
18229;DHT22;9239;50.932;3.142;2023-03-31T05:17:04;10.20;99.90
18229;DHT22;9239;50.932;3.142;2023-03-31T05:19:31;10.30;99.90
18229;DHT22;9239;50.932;3.142;2023-03-31T05:21:58;10.30;99.90
18229;DHT22;9239;50.932;3.142;2023-03-31T05:24:25;10.30;99.90
18229;DHT22;9239;50.932;3.142;2023-03-31T05:26:53;10.50;99.90
18229;DHT22;9239;50.932;3.142;2023-03-31T05:29:22;10.50;99.90
18229;DHT22;9239;50.932;3.142;2023-03-31T05:31:49;10.50;99.90
18229;DHT22;9239;50.932;3.142;2023-03-31T05:34:17;10.60;99.90
18229;DHT22;9239;50.932;3.142;2023-03-31T05:36:44;10.60;99.90
18229;DHT22;9239;50.932;3.142;2023-03-31T05:39:13;10.60;99.90
18229;DHT22;9239;50.932;3.142;2023-03-31T05:41:40;10.70;99.90
18229;DHT22;9239;50.932;3.142;2023-03-31T05:44:06;10.80;99.90
18229;DHT22;9239;50.932;3.142;2023-03-31T05:46:35;10.80;99.90
18229;DHT22;9239;50.932;3.142;2023-03-31T05:49:02;10.90;99.90
18229;DHT22;9239;50.932;3.142;2023-03-31T05:51:29;10.80;99.90
18229;DHT22;9239;50.932;3.142;2023-03-31T05:53:56;10.90;99.90
18229;DHT22;9239;50.932;3.142;2023-03-31T05:56:23;10.90;99.90
18229;DHT22;9239;50.932;3.142;2023-03-31T05:58:51;10.90;99.90
18229;DHT22;9239;50.932;3.142;2023-03-31T06:01:18;10.90;99.90
18229;DHT22;9239;50.932;3.142;2023-03-31T06:03:48;11.00;99.90
18229;DHT22;9239;50.932;3.142;2023-03-31T06:06:16;11.00;99.90
18229;DHT22;9239;50.932;3.142;2023-03-31T06:08:43;11.00;99.90
18229;DHT22;9239;50.932;3.142;2023-03-31T06:11:12;11.00;99.90
18229;DHT22;9239;50.932;3.142;2023-03-31T06:13:40;11.10;99.90
18229;DHT22;9239;50.932;3.142;2023-03-31T06:16:09;11.10;99.90
18229;DHT22;9239;50.932;3.142;2023-03-31T06:18:37;11.10;99.90
18229;DHT22;9239;50.932;3.142;2023-03-31T06:21:06;11.10;99.90
18229;DHT22;9239;50.932;3.142;2023-03-31T06:23:33;11.10;99.90
18229;DHT22;9239;50.932;3.142;2023-03-31T06:26:01;11.10;99.90
18229;DHT22;9239;50.932;3.142;2023-03-31T06:28:28;11.20;99.90
18229;DHT22;9239;50.932;3.142;2023-03-31T06:31:00;11.20;99.90
18229;DHT22;9239;50.932;3.142;2023-03-31T06:33:26;11.30;99.90
18229;DHT22;9239;50.932;3.142;2023-03-31T06:35:54;11.30;99.90
18229;DHT22;9239;50.932;3.142;2023-03-31T06:38:24;11.30;99.90
18229;DHT22;9239;50.932;3.142;2023-03-31T06:40:51;11.30;99.90
18229;DHT22;9239;50.932;3.142;2023-03-31T06:43:17;11.30;99.90
18229;DHT22;9239;50.932;3.142;2023-03-31T06:45:45;11.40;99.90
18229;DHT22;9239;50.932;3.142;2023-03-31T06:48:12;11.40;99.90
18229;DHT22;9239;50.932;3.142;2023-03-31T06:50:39;11.50;99.90
18229;DHT22;9239;50.932;3.142;2023-03-31T06:53:07;11.50;99.90
18229;DHT22;9239;50.932;3.142;2023-03-31T06:55:35;11.40;99.90
18229;DHT22;9239;50.932;3.142;2023-03-31T06:58:02;11.50;99.90
18229;DHT22;9239;50.932;3.142;2023-03-31T07:00:30;11.50;99.90
18229;DHT22;9239;50.932;3.142;2023-03-31T07:02:57;11.50;99.90
18229;DHT22;9239;50.932;3.142;2023-03-31T07:05:24;11.50;99.90
18229;DHT22;9239;50.932;3.142;2023-03-31T07:07:53;11.50;99.90
18229;DHT22;9239;50.932;3.142;2023-03-31T07:10:20;11.60;99.90
18229;DHT22;9239;50.932;3.142;2023-03-31T07:12:48;11.50;99.90
18229;DHT22;9239;50.932;3.142;2023-03-31T07:15:16;11.50;99.90
18229;DHT22;9239;50.932;3.142;2023-03-31T07:17:43;11.40;99.90
18229;DHT22;9239;50.932;3.142;2023-03-31T07:20:11;11.40;99.90
18229;DHT22;9239;50.932;3.142;2023-03-31T07:22:39;11.30;99.90
18229;DHT22;9239;50.932;3.142;2023-03-31T07:25:07;11.30;99.90
18229;DHT22;9239;50.932;3.142;2023-03-31T07:27:34;11.30;99.90
18229;DHT22;9239;50.932;3.142;2023-03-31T07:30:03;11.30;99.90
18229;DHT22;9239;50.932;3.142;2023-03-31T07:32:30;11.20;99.90
18229;DHT22;9239;50.932;3.142;2023-03-31T07:34:57;11.20;99.90
18229;DHT22;9239;50.932;3.142;2023-03-31T07:37:24;11.20;99.90
18229;DHT22;9239;50.932;3.142;2023-03-31T07:39:51;11.20;99.90
18229;DHT22;9239;50.932;3.142;2023-03-31T07:42:18;11.20;99.90
18229;DHT22;9239;50.932;3.142;2023-03-31T07:44:45;11.30;99.90
18229;DHT22;9239;50.932;3.142;2023-03-31T07:47:13;11.30;99.90
18229;DHT22;9239;50.932;3.142;2023-03-31T07:49:40;11.30;99.90
18229;DHT22;9239;50.932;3.142;2023-03-31T07:52:06;11.40;99.90
18229;DHT22;9239;50.932;3.142;2023-03-31T07:54:33;11.40;99.90
18229;DHT22;9239;50.932;3.142;2023-03-31T07:57:00;11.40;99.90
18229;DHT22;9239;50.932;3.142;2023-03-31T07:59:29;11.50;99.90
18229;DHT22;9239;50.932;3.142;2023-03-31T08:01:56;11.50;99.90
18229;DHT22;9239;50.932;3.142;2023-03-31T08:04:24;11.50;99.90
18229;DHT22;9239;50.932;3.142;2023-03-31T08:06:51;11.60;99.90
18229;DHT22;9239;50.932;3.142;2023-03-31T08:09:18;11.60;99.90
18229;DHT22;9239;50.932;3.142;2023-03-31T08:11:47;11.70;99.90
18229;DHT22;9239;50.932;3.142;2023-03-31T08:14:14;11.70;99.90
18229;DHT22;9239;50.932;3.142;2023-03-31T08:16:41;11.70;99.90
18229;DHT22;9239;50.932;3.142;2023-03-31T08:19:08;11.70;99.90
18229;DHT22;9239;50.932;3.142;2023-03-31T08:21:36;11.80;99.90
18229;DHT22;9239;50.932;3.142;2023-03-31T08:24:03;11.80;99.90
18229;DHT22;9239;50.932;3.142;2023-03-31T08:26:30;11.80;99.90
18229;DHT22;9239;50.932;3.142;2023-03-31T08:28:59;11.90;99.90
18229;DHT22;9239;50.932;3.142;2023-03-31T08:31:26;11.80;99.90
18229;DHT22;9239;50.932;3.142;2023-03-31T08:33:53;11.80;99.90
18229;DHT22;9239;50.932;3.142;2023-03-31T08:36:21;11.80;99.90
18229;DHT22;9239;50.932;3.142;2023-03-31T08:38:50;11.60;99.90
18229;DHT22;9239;50.932;3.142;2023-03-31T08:41:31;11.60;99.90
18229;DHT22;9239;50.932;3.142;2023-03-31T08:44:01;11.50;99.90
18229;DHT22;9239;50.932;3.142;2023-03-31T08:46:30;11.40;99.90
18229;DHT22;9239;50.932;3.142;2023-03-31T08:49:00;11.30;99.90
18229;DHT22;9239;50.932;3.142;2023-03-31T08:51:31;11.30;99.90
18229;DHT22;9239;50.932;3.142;2023-03-31T08:54:01;11.20;99.90
18229;DHT22;9239;50.932;3.142;2023-03-31T08:56:30;11.20;99.90
18229;DHT22;9239;50.932;3.142;2023-03-31T08:59:00;11.10;99.90
18229;DHT22;9239;50.932;3.142;2023-03-31T09:01:36;11.10;99.90
18229;DHT22;9239;50.932;3.142;2023-03-31T09:04:19;11.00;99.90
18229;DHT22;9239;50.932;3.142;2023-03-31T09:06:52;11.00;99.90
18229;DHT22;9239;50.932;3.142;2023-03-31T09:09:28;11.00;99.90
18229;DHT22;9239;50.932;3.142;2023-03-31T09:12:03;11.00;99.90
18229;DHT22;9239;50.932;3.142;2023-03-31T09:14:35;11.00;99.90
18229;DHT22;9239;50.932;3.142;2023-03-31T09:17:15;11.00;99.90
18229;DHT22;9239;50.932;3.142;2023-03-31T09:19:48;11.10;99.90
18229;DHT22;9239;50.932;3.142;2023-03-31T09:22:19;11.00;99.90
18229;DHT22;9239;50.932;3.142;2023-03-31T09:24:53;11.10;99.90
18229;DHT22;9239;50.932;3.142;2023-03-31T09:27:23;11.20;99.90
18229;DHT22;9239;50.932;3.142;2023-03-31T09:29:54;11.20;99.90
18229;DHT22;9239;50.932;3.142;2023-03-31T09:32:24;11.20;99.90
18229;DHT22;9239;50.932;3.142;2023-03-31T09:34:52;11.20;99.90
18229;DHT22;9239;50.932;3.142;2023-03-31T09:37:22;11.20;99.90
18229;DHT22;9239;50.932;3.142;2023-03-31T09:39:51;11.30;99.90
18229;DHT22;9239;50.932;3.142;2023-03-31T09:42:18;11.20;99.90
18229;DHT22;9239;50.932;3.142;2023-03-31T09:44:46;11.20;99.90
18229;DHT22;9239;50.932;3.142;2023-03-31T09:47:18;11.10;99.90
18229;DHT22;9239;50.932;3.142;2023-03-31T09:49:47;11.20;99.90
18229;DHT22;9239;50.932;3.142;2023-03-31T09:52:20;11.20;99.90
18229;DHT22;9239;50.932;3.142;2023-03-31T09:54:53;11.20;99.90
18229;DHT22;9239;50.932;3.142;2023-03-31T09:57:25;11.30;99.90
18229;DHT22;9239;50.932;3.142;2023-03-31T09:59:53;11.20;99.90
18229;DHT22;9239;50.932;3.142;2023-03-31T10:02:35;11.20;99.90
18229;DHT22;9239;50.932;3.142;2023-03-31T10:05:04;11.20;99.90
18229;DHT22;9239;50.932;3.142;2023-03-31T10:07:32;11.20;99.90
18229;DHT22;9239;50.932;3.142;2023-03-31T10:10:01;11.20;99.90
18229;DHT22;9239;50.932;3.142;2023-03-31T10:12:28;11.20;99.90
18229;DHT22;9239;50.932;3.142;2023-03-31T10:15:13;11.20;99.90
18229;DHT22;9239;50.932;3.142;2023-03-31T10:17:43;11.20;99.90
18229;DHT22;9239;50.932;3.142;2023-03-31T10:20:19;11.20;99.90
18229;DHT22;9239;50.932;3.142;2023-03-31T10:22:47;11.10;99.90
18229;DHT22;9239;50.932;3.142;2023-03-31T10:25:17;11.20;99.90
18229;DHT22;9239;50.932;3.142;2023-03-31T10:27:48;11.20;99.90
18229;DHT22;9239;50.932;3.142;2023-03-31T10:30:20;11.20;99.90
18229;DHT22;9239;50.932;3.142;2023-03-31T10:32:50;11.20;99.90
18229;DHT22;9239;50.932;3.142;2023-03-31T10:35:23;11.20;99.90
18229;DHT22;9239;50.932;3.142;2023-03-31T10:37:54;11.30;99.90
18229;DHT22;9239;50.932;3.142;2023-03-31T10:40:25;11.30;99.90
18229;DHT22;9239;50.932;3.142;2023-03-31T10:43:02;11.30;99.90
18229;DHT22;9239;50.932;3.142;2023-03-31T10:45:30;11.30;99.90
18229;DHT22;9239;50.932;3.142;2023-03-31T10:48:02;11.30;99.90
18229;DHT22;9239;50.932;3.142;2023-03-31T10:50:31;11.40;99.90
18229;DHT22;9239;50.932;3.142;2023-03-31T10:53:03;11.50;99.90
18229;DHT22;9239;50.932;3.142;2023-03-31T10:55:36;11.50;99.90
18229;DHT22;9239;50.932;3.142;2023-03-31T10:58:16;11.50;99.90
18229;DHT22;9239;50.932;3.142;2023-03-31T11:00:58;11.50;99.90
18229;DHT22;9239;50.932;3.142;2023-03-31T11:06:51;11.20;99.90
18229;DHT22;9239;50.932;3.142;2023-03-31T11:09:35;11.20;99.90
18229;DHT22;9239;50.932;3.142;2023-03-31T11:12:15;11.10;99.90
18229;DHT22;9239;50.932;3.142;2023-03-31T11:14:51;11.20;99.90
18229;DHT22;9239;50.932;3.142;2023-03-31T11:17:27;11.10;99.90
18229;DHT22;9239;50.932;3.142;2023-03-31T11:20:06;11.10;99.90
18229;DHT22;9239;50.932;3.142;2023-03-31T11:22:43;11.10;99.90
18229;DHT22;9239;50.932;3.142;2023-03-31T11:25:26;11.10;99.90
18229;DHT22;9239;50.932;3.142;2023-03-31T11:28:12;11.20;99.90
18229;DHT22;9239;50.932;3.142;2023-03-31T11:30:47;11.20;99.90
18229;DHT22;9239;50.932;3.142;2023-03-31T11:33:40;11.30;99.90
18229;DHT22;9239;50.932;3.142;2023-03-31T11:36:22;11.20;99.90
18229;DHT22;9239;50.932;3.142;2023-03-31T11:39:06;11.30;99.90
18229;DHT22;9239;50.932;3.142;2023-03-31T11:41:40;11.20;99.90
18229;DHT22;9239;50.932;3.142;2023-03-31T11:44:12;11.20;99.90
18229;DHT22;9239;50.932;3.142;2023-03-31T11:46:45;11.20;99.90
18229;DHT22;9239;50.932;3.142;2023-03-31T11:49:17;11.10;99.90
18229;DHT22;9239;50.932;3.142;2023-03-31T11:51:49;11.10;99.90
18229;DHT22;9239;50.932;3.142;2023-03-31T11:54:24;11.10;99.90
18229;DHT22;9239;50.932;3.142;2023-03-31T11:56:53;11.00;99.90
18229;DHT22;9239;50.932;3.142;2023-03-31T11:59:24;11.00;99.90
18229;DHT22;9239;50.932;3.142;2023-03-31T12:02:00;11.00;99.90
18229;DHT22;9239;50.932;3.142;2023-03-31T12:04:33;11.00;99.90
18229;DHT22;9239;50.932;3.142;2023-03-31T12:07:15;11.10;99.90
18229;DHT22;9239;50.932;3.142;2023-03-31T12:09:52;11.10;99.90
18229;DHT22;9239;50.932;3.142;2023-03-31T12:12:23;11.10;99.90
18229;DHT22;9239;50.932;3.142;2023-03-31T12:14:58;11.10;99.90
18229;DHT22;9239;50.932;3.142;2023-03-31T12:17:28;11.10;99.90
18229;DHT22;9239;50.932;3.142;2023-03-31T12:19:57;11.20;99.90
18229;DHT22;9239;50.932;3.142;2023-03-31T12:22:27;11.20;99.90
18229;DHT22;9239;50.932;3.142;2023-03-31T12:24:55;11.30;99.90
18229;DHT22;9239;50.932;3.142;2023-03-31T12:27:24;11.30;99.90
18229;DHT22;9239;50.932;3.142;2023-03-31T12:29:56;11.40;99.90
18229;DHT22;9239;50.932;3.142;2023-03-31T12:32:26;11.50;99.90
18229;DHT22;9239;50.932;3.142;2023-03-31T12:34:57;11.50;99.90
18229;DHT22;9239;50.932;3.142;2023-03-31T12:37:42;11.60;99.90
18229;DHT22;9239;50.932;3.142;2023-03-31T12:40:20;11.60;99.90
18229;DHT22;9239;50.932;3.142;2023-03-31T12:42:59;11.50;99.90
18229;DHT22;9239;50.932;3.142;2023-03-31T12:45:29;11.50;99.90
18229;DHT22;9239;50.932;3.142;2023-03-31T12:51:11;11.50;99.90
18229;DHT22;9239;50.932;3.142;2023-03-31T12:53:53;11.50;99.90
18229;DHT22;9239;50.932;3.142;2023-03-31T12:56:26;11.60;99.90
18229;DHT22;9239;50.932;3.142;2023-03-31T12:58:53;11.60;99.90
18229;DHT22;9239;50.932;3.142;2023-03-31T13:01:21;11.50;99.90
18229;DHT22;9239;50.932;3.142;2023-03-31T13:03:53;11.50;99.90
18229;DHT22;9239;50.932;3.142;2023-03-31T13:06:53;11.50;99.90
18229;DHT22;9239;50.932;3.142;2023-03-31T13:09:44;11.40;99.90
18229;DHT22;9239;50.932;3.142;2023-03-31T13:12:19;11.40;99.90
18229;DHT22;9239;50.932;3.142;2023-03-31T13:14:48;11.40;99.90
18229;DHT22;9239;50.932;3.142;2023-03-31T13:17:27;11.40;99.90
18229;DHT22;9239;50.932;3.142;2023-03-31T13:19:56;11.30;99.90
18229;DHT22;9239;50.932;3.142;2023-03-31T13:22:42;11.30;99.90
18229;DHT22;9239;50.932;3.142;2023-03-31T13:28:33;11.20;99.90
18229;DHT22;9239;50.932;3.142;2023-03-31T13:31:04;11.20;99.90
18229;DHT22;9239;50.932;3.142;2023-03-31T13:33:49;11.20;99.90
18229;DHT22;9239;50.932;3.142;2023-03-31T13:36:37;11.20;99.90
18229;DHT22;9239;50.932;3.142;2023-03-31T13:39:27;11.20;99.90
18229;DHT22;9239;50.932;3.142;2023-03-31T13:42:05;11.20;99.90
18229;DHT22;9239;50.932;3.142;2023-03-31T13:44:58;11.20;99.90
18229;DHT22;9239;50.932;3.142;2023-03-31T13:47:42;11.20;99.90
18229;DHT22;9239;50.932;3.142;2023-03-31T13:50:29;11.30;99.90
18229;DHT22;9239;50.932;3.142;2023-03-31T13:53:06;11.30;99.90
18229;DHT22;9239;50.932;3.142;2023-03-31T13:56:00;11.40;99.90
18229;DHT22;9239;50.932;3.142;2023-03-31T13:58:51;11.50;99.90
18229;DHT22;9239;50.932;3.142;2023-03-31T14:04:47;11.50;99.90
18229;DHT22;9239;50.932;3.142;2023-03-31T14:07:29;11.60;99.90
18229;DHT22;9239;50.932;3.142;2023-03-31T14:09:57;11.60;99.90
18229;DHT22;9239;50.932;3.142;2023-03-31T14:12:30;11.60;99.90
18229;DHT22;9239;50.932;3.142;2023-03-31T14:14:58;11.80;99.90
18229;DHT22;9239;50.932;3.142;2023-03-31T14:17:27;11.80;99.90
18229;DHT22;9239;50.932;3.142;2023-03-31T14:20:13;11.80;99.90
18229;DHT22;9239;50.932;3.142;2023-03-31T14:22:47;11.80;99.90
18229;DHT22;9239;50.932;3.142;2023-03-31T14:25:21;11.70;99.90
18229;DHT22;9239;50.932;3.142;2023-03-31T14:27:59;11.60;99.90
18229;DHT22;9239;50.932;3.142;2023-03-31T14:30:35;11.50;99.90
18229;DHT22;9239;50.932;3.142;2023-03-31T14:33:17;11.40;99.90
18229;DHT22;9239;50.932;3.142;2023-03-31T14:35:54;11.40;99.90
18229;DHT22;9239;50.932;3.142;2023-03-31T14:38:27;11.30;99.90
18229;DHT22;9239;50.932;3.142;2023-03-31T14:40:55;11.30;99.90
18229;DHT22;9239;50.932;3.142;2023-03-31T14:43:27;11.30;99.90
18229;DHT22;9239;50.932;3.142;2023-03-31T14:45:59;11.30;99.90
18229;DHT22;9239;50.932;3.142;2023-03-31T14:48:27;11.30;99.90
18229;DHT22;9239;50.932;3.142;2023-03-31T14:50:57;11.40;99.90
18229;DHT22;9239;50.932;3.142;2023-03-31T14:53:25;11.40;99.90
18229;DHT22;9239;50.932;3.142;2023-03-31T14:55:58;11.40;99.90
18229;DHT22;9239;50.932;3.142;2023-03-31T14:58:28;11.30;99.90
18229;DHT22;9239;50.932;3.142;2023-03-31T15:01:00;11.40;99.90
18229;DHT22;9239;50.932;3.142;2023-03-31T15:03:28;11.40;99.90
18229;DHT22;9239;50.932;3.142;2023-03-31T15:05:56;11.40;99.90
18229;DHT22;9239;50.932;3.142;2023-03-31T15:08:25;11.40;99.90
18229;DHT22;9239;50.932;3.142;2023-03-31T15:10:56;11.40;99.90
18229;DHT22;9239;50.932;3.142;2023-03-31T15:13:30;11.30;99.90
18229;DHT22;9239;50.932;3.142;2023-03-31T15:15:57;11.40;99.90
18229;DHT22;9239;50.932;3.142;2023-03-31T15:18:25;11.40;99.90
18229;DHT22;9239;50.932;3.142;2023-03-31T15:20:52;11.50;99.90
18229;DHT22;9239;50.932;3.142;2023-03-31T15:23:21;11.50;99.90
18229;DHT22;9239;50.932;3.142;2023-03-31T15:25:56;11.60;99.90
18229;DHT22;9239;50.932;3.142;2023-03-31T15:28:25;11.60;99.90
18229;DHT22;9239;50.932;3.142;2023-03-31T15:30:55;11.60;99.90
18229;DHT22;9239;50.932;3.142;2023-03-31T15:33:28;11.70;99.90
18229;DHT22;9239;50.932;3.142;2023-03-31T15:35:57;11.70;99.90
18229;DHT22;9239;50.932;3.142;2023-03-31T15:38:26;11.60;99.90
18229;DHT22;9239;50.932;3.142;2023-03-31T15:40:57;11.60;99.90
18229;DHT22;9239;50.932;3.142;2023-03-31T15:43:29;11.70;99.90
18229;DHT22;9239;50.932;3.142;2023-03-31T15:45:57;11.70;99.90
18229;DHT22;9239;50.932;3.142;2023-03-31T15:48:27;11.70;99.90
18229;DHT22;9239;50.932;3.142;2023-03-31T15:51:03;11.70;99.90
18229;DHT22;9239;50.932;3.142;2023-03-31T15:53:35;11.60;99.90
18229;DHT22;9239;50.932;3.142;2023-03-31T15:56:04;11.60;99.90
18229;DHT22;9239;50.932;3.142;2023-03-31T15:58:55;11.50;99.90
18229;DHT22;9239;50.932;3.142;2023-03-31T16:01:23;11.40;99.90
18229;DHT22;9239;50.932;3.142;2023-03-31T16:03:54;11.30;99.90
18229;DHT22;9239;50.932;3.142;2023-03-31T16:06:28;11.30;99.90
18229;DHT22;9239;50.932;3.142;2023-03-31T16:09:00;11.30;99.90
18229;DHT22;9239;50.932;3.142;2023-03-31T16:11:36;11.30;99.90
18229;DHT22;9239;50.932;3.142;2023-03-31T16:14:10;11.30;99.90
18229;DHT22;9239;50.932;3.142;2023-03-31T16:16:39;11.30;99.90
18229;DHT22;9239;50.932;3.142;2023-03-31T16:19:11;11.30;99.90
18229;DHT22;9239;50.932;3.142;2023-03-31T16:21:41;11.40;99.90
18229;DHT22;9239;50.932;3.142;2023-03-31T16:24:09;11.40;99.90
18229;DHT22;9239;50.932;3.142;2023-03-31T16:26:37;11.40;99.90
18229;DHT22;9239;50.932;3.142;2023-03-31T16:29:04;11.40;99.90
18229;DHT22;9239;50.932;3.142;2023-03-31T16:31:33;11.40;99.90
18229;DHT22;9239;50.932;3.142;2023-03-31T16:34:02;11.40;99.90
18229;DHT22;9239;50.932;3.142;2023-03-31T16:36:29;11.30;99.90